Bogota, Colombia
Current Conditions -  °F | °C
As of 12:00 AM on Sunday 23 Nov 2014 (Local Time) from SKBO Reporting Station
Broken Clouds Broken Clouds  
Wind Chill: 55°   Ceiling: 4000
Heat Index: 55°   Visibility: 6mi
Dew Point: 52°   Wind: 5mph
Humidity: 88%   Direction: 40°NE
Pressure: 30.32"   Gusts: NA
Location:  4.63°N, 74.09°W
Report Text: SKBO 230500Z 04004KT 9999 FEW017 BKN040 13/11 A3032
Loading
Personal Weather Stations






























Interactive Weather Map New forecast layout! Learn more

10-Day Weather Forecast

Advertisements
Track Severe Weather on mobile